createdAt,value
2023-04-05T00:03:00.398Z,3.91
2023-04-05T00:07:17.653Z,3.89
2023-04-05T00:11:34.548Z,3.68
2023-04-05T00:15:50.914Z,3.85
2023-04-05T00:20:08.250Z,3.83
2023-04-05T00:24:24.553Z,3.82
2023-04-05T00:28:40.837Z,3.64
2023-04-05T00:32:57.254Z,3.63
2023-04-05T00:37:13.464Z,3.60
2023-04-05T00:41:29.652Z,3.55
2023-04-05T00:45:46.286Z,3.65
2023-04-05T00:50:02.849Z,3.52
2023-04-05T00:54:19.463Z,3.66
2023-04-05T00:58:35.731Z,3.61
2023-04-05T01:03:02.033Z,3.46
2023-04-05T01:07:31.060Z,3.61
2023-04-05T01:11:47.733Z,3.63
2023-04-05T01:16:04.797Z,3.62
2023-04-05T01:20:23.111Z,3.51
2023-04-05T01:24:53.096Z,3.43
2023-04-05T01:29:33.962Z,3.44
2023-04-05T01:34:13.839Z,3.29
2023-04-05T01:38:30.653Z,3.28
2023-04-05T01:42:46.983Z,3.39
2023-04-05T01:47:03.294Z,3.14
2023-04-05T01:51:20.411Z,3.09
2023-04-05T01:55:36.823Z,3.13
2023-04-05T01:59:53.031Z,3.16
2023-04-05T02:04:09.283Z,3.00
2023-04-05T02:08:25.477Z,2.88
2023-04-05T02:12:41.618Z,2.95
2023-04-05T02:16:57.761Z,2.72
2023-04-05T02:21:17.522Z,2.65
2023-04-05T02:25:33.766Z,2.68
2023-04-05T02:29:49.968Z,2.73
2023-04-05T02:34:09.397Z,2.61
2023-04-05T02:38:25.629Z,2.67
2023-04-05T02:42:42.456Z,2.48
2023-04-05T02:46:58.707Z,2.39
2023-04-05T02:51:14.918Z,2.48
2023-04-05T02:55:31.341Z,2.40
2023-04-05T02:59:47.752Z,2.19
2023-04-05T03:04:04.189Z,2.23
2023-04-05T03:08:23.965Z,2.15
2023-04-05T03:12:40.312Z,2.40
2023-04-05T03:16:56.952Z,2.01
2023-04-05T03:21:13.158Z,2.15
2023-04-05T03:25:29.398Z,2.11
2023-04-05T03:29:45.748Z,2.28
2023-04-05T03:34:01.880Z,2.10
2023-04-05T03:38:18.419Z,2.06
2023-04-05T03:42:34.619Z,1.98
2023-04-05T03:46:51.005Z,1.96
2023-04-05T03:51:08.277Z,1.98
2023-04-05T03:55:24.456Z,1.90
2023-04-05T03:59:40.777Z,1.68
2023-04-05T04:03:57.048Z,1.80
2023-04-05T04:08:13.819Z,1.68
2023-04-05T04:12:29.981Z,1.82
2023-04-05T04:16:46.285Z,1.58
2023-04-05T04:21:08.522Z,1.28
2023-04-05T04:25:26.855Z,1.47
2023-04-05T04:29:46.963Z,1.34
2023-04-05T04:34:04.607Z,1.23
2023-04-05T04:38:21.010Z,1.55
2023-04-05T04:42:39.264Z,1.39
2023-04-05T04:46:55.383Z,1.38
2023-04-05T04:51:11.642Z,1.60
2023-04-05T04:55:30.634Z,1.45
2023-04-05T04:59:46.778Z,1.44
2023-04-05T05:04:04.600Z,1.72
2023-04-05T05:08:21.658Z,1.78
2023-04-05T05:12:39.142Z,1.65
2023-04-05T05:16:59.257Z,1.69
2023-04-05T05:21:15.871Z,1.85
2023-04-05T05:25:32.203Z,1.98
2023-04-05T05:29:48.458Z,1.96
2023-04-05T05:34:04.623Z,2.15
2023-04-05T05:38:20.993Z,2.16
2023-04-05T05:42:37.445Z,2.33
2023-04-05T05:46:53.579Z,2.23
2023-04-05T05:51:12.724Z,2.04
2023-04-05T05:55:28.886Z,2.16
2023-04-05T05:59:45.171Z,2.33
2023-04-05T06:04:01.573Z,2.18
2023-04-05T06:08:17.854Z,2.06
2023-04-05T06:12:34.302Z,2.35
2023-04-05T06:16:50.732Z,2.50
2023-04-05T06:21:07.025Z,2.61
2023-04-05T06:25:23.234Z,2.58
2023-04-05T06:29:39.416Z,2.91
2023-04-05T06:33:55.835Z,2.86
2023-04-05T06:38:12.084Z,3.14
2023-04-05T06:42:28.360Z,2.96
2023-04-05T06:46:44.521Z,2.75
2023-04-05T06:51:02.586Z,3.23
2023-04-05T06:55:18.937Z,3.43
2023-04-05T06:59:35.355Z,3.57
2023-04-05T07:03:51.566Z,3.87
2023-04-05T07:08:08.107Z,4.08
2023-04-05T07:12:24.401Z,3.88
2023-04-05T07:16:40.825Z,4.00
2023-04-05T07:21:04.167Z,4.59
2023-04-05T07:25:20.396Z,4.67
2023-04-05T07:29:43.115Z,4.51
2023-04-05T07:34:01.407Z,5.33
2023-04-05T07:38:17.586Z,5.35
2023-04-05T07:42:34.003Z,4.88
2023-04-05T07:46:50.334Z,4.30
2023-04-05T07:51:08.613Z,4.89
2023-04-05T07:55:24.830Z,5.10
2023-04-05T07:59:41.153Z,5.34
2023-04-05T08:03:57.963Z,4.90
2023-04-05T08:08:14.211Z,5.13
2023-04-05T08:12:34.349Z,5.10
2023-04-05T08:16:52.109Z,5.49
2023-04-05T08:21:08.358Z,5.37
2023-04-05T08:25:24.646Z,5.63
2023-04-05T08:29:40.880Z,4.99
2023-04-05T08:33:57.082Z,5.43
2023-04-05T08:38:13.220Z,4.37
2023-04-05T08:42:59.821Z,5.01
2023-04-05T08:47:18.699Z,5.34
2023-04-05T08:51:41.541Z,5.80
2023-04-05T08:56:01.152Z,6.19
2023-04-05T09:00:18.574Z,6.19
2023-04-05T09:04:45.024Z,6.26
2023-04-05T09:09:01.631Z,5.65
2023-04-05T09:13:18.073Z,5.78
2023-04-05T09:17:34.856Z,6.20
2023-04-05T09:22:03.574Z,5.80
2023-04-05T09:26:24.433Z,6.67
2023-04-05T09:30:45.678Z,6.49
2023-04-05T09:35:04.185Z,6.35
2023-04-05T09:39:30.094Z,6.45
2023-04-05T09:43:46.268Z,6.75
2023-04-05T09:48:04.510Z,7.37
2023-04-05T09:52:34.183Z,7.32
2023-04-05T09:56:57.834Z,7.62
2023-04-05T10:01:17.225Z,7.17
2023-04-05T10:05:35.948Z,7.14
2023-04-05T10:09:54.366Z,7.10
2023-04-05T10:14:10.682Z,7.87
2023-04-05T10:18:41.402Z,7.55
2023-04-05T10:23:15.714Z,7.45
2023-04-05T10:27:39.432Z,7.57
2023-04-05T10:32:13.692Z,8.19
2023-04-05T10:36:50.462Z,8.84
2023-04-05T10:41:16.025Z,8.94
2023-04-05T10:45:35.177Z,9.36
2023-04-05T10:49:56.250Z,9.17
2023-04-05T10:54:12.447Z,9.01
2023-04-05T10:58:29.479Z,8.81
2023-04-05T11:02:46.314Z,8.77
2023-04-05T11:07:12.572Z,9.30
2023-04-05T11:11:38.652Z,9.54
2023-04-05T11:16:10.258Z,9.06
2023-04-05T11:20:26.512Z,9.49
2023-04-05T11:24:55.304Z,9.97
2023-04-05T11:29:14.028Z,10.57
2023-04-05T11:33:57.664Z,10.20
2023-04-05T11:38:23.112Z,10.37
2023-04-05T11:42:39.402Z,10.57
2023-04-05T11:46:56.099Z,10.15
2023-04-05T11:51:14.857Z,11.02
2023-04-05T11:55:31.089Z,10.88
2023-04-05T11:59:51.625Z,11.17
2023-04-05T12:04:08.478Z,11.20
2023-04-05T12:08:39.692Z,11.10
2023-04-05T12:12:55.984Z,10.81
2023-04-05T12:17:12.208Z,10.30
2023-04-05T12:21:28.757Z,10.95
2023-04-05T12:25:48.767Z,10.28
2023-04-05T12:30:14.826Z,10.51
2023-04-05T12:34:31.150Z,11.03
2023-04-05T12:38:48.386Z,10.77
2023-04-05T12:43:07.562Z,10.75
2023-04-05T12:47:24.188Z,11.86
2023-04-05T12:51:46.567Z,12.05
2023-04-05T12:56:07.148Z,12.27
2023-04-05T13:00:27.909Z,11.70
2023-04-05T13:04:44.248Z,12.08
2023-04-05T13:09:00.471Z,11.72
2023-04-05T13:13:17.721Z,12.10
2023-04-05T13:17:33.958Z,12.58
2023-04-05T13:21:50.218Z,12.11
2023-04-05T13:26:08.812Z,12.76
2023-04-05T13:30:25.112Z,12.02
2023-04-05T13:34:43.332Z,12.31
2023-04-05T13:38:59.509Z,13.06
2023-04-05T13:43:15.775Z,12.60
2023-04-05T13:47:34.134Z,12.70
2023-04-05T13:51:50.460Z,12.71
2023-04-05T13:56:07.163Z,11.84
2023-04-05T14:00:25.526Z,11.97
2023-04-05T14:04:44.811Z,12.35
2023-04-05T14:09:01.065Z,11.59
2023-04-05T14:13:17.883Z,12.15
2023-04-05T14:17:34.235Z,12.01
2023-04-05T14:21:51.250Z,12.25
2023-04-05T14:26:07.509Z,11.50
2023-04-05T14:30:25.726Z,11.85
2023-04-05T14:34:41.849Z,11.94
2023-04-05T14:38:58.114Z,12.38
2023-04-05T14:43:16.459Z,11.23
2023-04-05T14:47:32.715Z,11.60
2023-04-05T14:51:49.063Z,11.54
2023-04-05T14:56:05.660Z,11.78
2023-04-05T15:00:24.032Z,12.63
2023-04-05T15:04:41.479Z,12.22
2023-04-05T15:08:59.723Z,12.81
2023-04-05T15:13:17.997Z,13.05
2023-04-05T15:17:34.299Z,13.61
2023-04-05T15:21:51.150Z,13.96
2023-04-05T15:26:07.379Z,14.42
2023-04-05T15:30:23.630Z,14.43
2023-04-05T15:34:41.297Z,14.36
2023-04-05T15:38:57.497Z,14.23
2023-04-05T15:43:13.649Z,14.05
2023-04-05T15:47:32.025Z,14.08
2023-04-05T15:51:48.313Z,13.50
2023-04-05T15:56:06.633Z,12.61
2023-04-05T16:00:23.525Z,12.34
2023-04-05T16:04:39.892Z,11.79
2023-04-05T16:08:56.235Z,11.99
2023-04-05T16:13:12.567Z,12.24
2023-04-05T16:17:28.855Z,12.54
2023-04-05T16:21:45.195Z,11.83
2023-04-05T16:26:03.718Z,11.95
2023-04-05T16:30:20.106Z,11.91
2023-04-05T16:34:36.592Z,11.53
2023-04-05T16:38:52.772Z,12.29
2023-04-05T16:43:08.962Z,11.92
2023-04-05T16:47:25.290Z,11.43
2023-04-05T16:51:41.916Z,11.18
2023-04-05T16:55:58.219Z,11.22
2023-04-05T17:00:15.024Z,10.42
2023-04-05T17:04:31.732Z,10.48
2023-04-05T17:08:48.107Z,10.80
2023-04-05T17:13:04.559Z,10.65
2023-04-05T17:17:20.791Z,10.61
2023-04-05T17:21:39.190Z,10.42
2023-04-05T17:25:55.429Z,9.88
2023-04-05T17:30:12.177Z,9.73
2023-04-05T17:34:30.406Z,9.81
2023-04-05T17:38:46.601Z,9.98
2023-04-05T17:43:02.944Z,10.09
2023-04-05T17:47:19.181Z,10.10
2023-04-05T17:51:35.504Z,9.99
2023-04-05T17:55:51.737Z,9.97
2023-04-05T18:00:09.171Z,9.84
2023-04-05T18:04:26.372Z,9.81
2023-04-05T18:08:42.600Z,9.61
2023-04-05T18:12:58.852Z,9.47
2023-04-05T18:17:15.064Z,9.40
2023-04-05T18:21:31.749Z,9.33
2023-04-05T18:25:48.427Z,9.20
2023-04-05T18:30:05.513Z,8.75
2023-04-05T18:34:21.920Z,8.78
2023-04-05T18:38:38.187Z,8.71
2023-04-05T18:42:54.441Z,8.57
2023-04-05T18:47:10.779Z,8.52
2023-04-05T18:51:27.428Z,8.35
2023-04-05T18:55:43.631Z,8.03
2023-04-05T19:00:00.246Z,8.13
2023-04-05T19:04:16.570Z,8.30
2023-04-05T19:08:33.239Z,8.19
2023-04-05T19:12:49.514Z,7.65
2023-04-05T19:17:07.024Z,7.81
2023-04-05T19:21:24.933Z,7.82
2023-04-05T19:25:41.205Z,7.81
2023-04-05T19:29:58.027Z,7.41
2023-04-05T19:34:14.225Z,7.79
2023-04-05T19:38:30.628Z,7.31
2023-04-05T19:42:47.820Z,7.37
2023-04-05T19:47:12.573Z,7.12
2023-04-05T19:51:29.124Z,7.08
2023-04-05T19:55:45.547Z,7.05
2023-04-05T20:00:01.712Z,6.91
2023-04-05T20:04:19.726Z,7.04
2023-04-05T20:08:46.754Z,6.79
2023-04-05T20:13:02.943Z,6.49
2023-04-05T20:17:19.366Z,6.52
2023-04-05T20:21:37.801Z,6.48
2023-04-05T20:25:54.299Z,6.46
2023-04-05T20:30:11.978Z,6.26
2023-04-05T20:34:38.286Z,6.24
2023-04-05T20:38:54.565Z,6.03
2023-04-05T20:43:10.946Z,5.95
2023-04-05T20:47:27.154Z,6.09
2023-04-05T20:51:43.370Z,6.24
2023-04-05T20:56:00.584Z,6.16
2023-04-05T21:00:17.119Z,6.01
2023-04-05T21:04:34.911Z,5.81
2023-04-05T21:08:51.313Z,6.01
2023-04-05T21:13:07.568Z,5.57
2023-04-05T21:17:23.786Z,5.62
2023-04-05T21:21:39.982Z,5.56
2023-04-05T21:25:59.529Z,5.71
2023-04-05T21:30:16.758Z,5.56
2023-04-05T21:34:33.021Z,5.69
2023-04-05T21:38:49.244Z,5.54
2023-04-05T21:43:05.675Z,5.43
2023-04-05T21:47:21.904Z,5.49
2023-04-05T21:51:38.052Z,5.55
2023-04-05T21:55:54.567Z,5.22
2023-04-05T22:00:12.063Z,5.51
2023-04-05T22:04:29.349Z,5.59
2023-04-05T22:08:45.635Z,5.34
2023-04-05T22:13:02.181Z,5.08
2023-04-05T22:17:18.816Z,4.97
2023-04-05T22:21:35.039Z,5.20
2023-04-05T22:25:53.358Z,5.03
2023-04-05T22:30:10.062Z,5.00
2023-04-05T22:34:26.438Z,4.96
2023-04-05T22:38:42.698Z,4.89
2023-04-05T22:42:58.961Z,4.92
2023-04-05T22:47:15.301Z,4.79
2023-04-05T22:51:31.890Z,4.82
2023-04-05T22:55:48.137Z,4.53
2023-04-05T23:00:06.195Z,4.64
2023-04-05T23:04:22.383Z,4.62
2023-04-05T23:08:38.537Z,4.45
2023-04-05T23:12:54.734Z,4.57
2023-04-05T23:17:11.747Z,4.52
2023-04-05T23:21:28.028Z,4.68
2023-04-05T23:25:44.181Z,4.43
2023-04-05T23:30:00.384Z,4.50
2023-04-05T23:34:17.058Z,4.41
2023-04-05T23:38:33.239Z,4.43
2023-04-05T23:42:49.424Z,4.51
2023-04-05T23:47:06.477Z,4.35
2023-04-05T23:51:22.961Z,4.17
2023-04-05T23:55:40.788Z,4.28
2023-04-05T23:59:57.034Z,3.91
